sensor_id;sensor_type;location;lat;lon;timestamp;P1;durP1;ratioP1;P2;durP2;ratioP2
74963;SDS011;63521;51.900;4.748;2022-11-11T00:00:22;4.65;;;2.47;;
74963;SDS011;63521;51.900;4.748;2022-11-11T00:02:49;5.10;;;2.47;;
74963;SDS011;63521;51.900;4.748;2022-11-11T00:05:15;5.20;;;2.38;;
74963;SDS011;63521;51.900;4.748;2022-11-11T00:07:41;5.95;;;2.70;;
74963;SDS011;63521;51.900;4.748;2022-11-11T00:10:07;4.30;;;2.53;;
74963;SDS011;63521;51.900;4.748;2022-11-11T00:12:33;4.95;;;2.70;;
74963;SDS011;63521;51.900;4.748;2022-11-11T00:14:58;4.55;;;2.35;;
74963;SDS011;63521;51.900;4.748;2022-11-11T00:17:24;4.20;;;2.40;;
74963;SDS011;63521;51.900;4.748;2022-11-11T00:20:18;3.88;;;2.78;;
74963;SDS011;63521;51.900;4.748;2022-11-11T00:23:03;4.93;;;2.90;;
74963;SDS011;63521;51.900;4.748;2022-11-11T00:25:53;4.10;;;2.60;;
74963;SDS011;63521;51.900;4.748;2022-11-11T00:28:18;4.78;;;2.47;;
74963;SDS011;63521;51.900;4.748;2022-11-11T00:30:47;4.32;;;2.83;;
74963;SDS011;63521;51.900;4.748;2022-11-11T00:33:23;4.72;;;2.60;;
74963;SDS011;63521;51.900;4.748;2022-11-11T00:35:52;5.15;;;2.67;;
74963;SDS011;63521;51.900;4.748;2022-11-11T00:38:17;4.57;;;2.60;;
74963;SDS011;63521;51.900;4.748;2022-11-11T00:41:14;3.92;;;2.78;;
74963;SDS011;63521;51.900;4.748;2022-11-11T00:43:41;4.35;;;2.60;;
74963;SDS011;63521;51.900;4.748;2022-11-11T00:46:10;4.53;;;2.78;;
74963;SDS011;63521;51.900;4.748;2022-11-11T00:48:54;4.95;;;2.53;;
74963;SDS011;63521;51.900;4.748;2022-11-11T00:51:39;5.03;;;2.50;;
74963;SDS011;63521;51.900;4.748;2022-11-11T00:54:05;5.07;;;2.50;;
74963;SDS011;63521;51.900;4.748;2022-11-11T00:56:31;4.72;;;2.63;;
74963;SDS011;63521;51.900;4.748;2022-11-11T00:58:56;4.68;;;2.63;;
74963;SDS011;63521;51.900;4.748;2022-11-11T01:01:22;4.32;;;2.50;;
74963;SDS011;63521;51.900;4.748;2022-11-11T01:03:47;5.43;;;2.90;;
74963;SDS011;63521;51.900;4.748;2022-11-11T01:06:13;5.93;;;2.78;;
74963;SDS011;63521;51.900;4.748;2022-11-11T01:08:38;5.63;;;2.72;;
74963;SDS011;63521;51.900;4.748;2022-11-11T01:11:11;3.85;;;2.67;;
74963;SDS011;63521;51.900;4.748;2022-11-11T01:13:41;5.28;;;2.58;;
74963;SDS011;63521;51.900;4.748;2022-11-11T01:16:09;4.22;;;2.45;;
74963;SDS011;63521;51.900;4.748;2022-11-11T01:18:36;5.30;;;2.70;;
74963;SDS011;63521;51.900;4.748;2022-11-11T01:23:29;5.93;;;3.00;;
74963;SDS011;63521;51.900;4.748;2022-11-11T01:26:00;6.18;;;3.33;;
74963;SDS011;63521;51.900;4.748;2022-11-11T01:28:28;5.25;;;2.85;;
74963;SDS011;63521;51.900;4.748;2022-11-11T01:30:58;6.55;;;3.30;;
74963;SDS011;63521;51.900;4.748;2022-11-11T01:33:25;6.20;;;3.15;;
74963;SDS011;63521;51.900;4.748;2022-11-11T01:35:50;5.88;;;3.47;;
74963;SDS011;63521;51.900;4.748;2022-11-11T01:38:15;6.05;;;3.05;;
74963;SDS011;63521;51.900;4.748;2022-11-11T01:40:45;6.78;;;3.50;;
74963;SDS011;63521;51.900;4.748;2022-11-11T01:45:50;6.22;;;3.17;;
74963;SDS011;63521;51.900;4.748;2022-11-11T01:51:13;6.80;;;3.50;;
74963;SDS011;63521;51.900;4.748;2022-11-11T01:53:44;6.50;;;3.40;;
74963;SDS011;63521;51.900;4.748;2022-11-11T01:56:12;6.85;;;3.33;;
74963;SDS011;63521;51.900;4.748;2022-11-11T01:58:37;6.50;;;3.40;;
74963;SDS011;63521;51.900;4.748;2022-11-11T02:01:03;8.00;;;3.50;;
74963;SDS011;63521;51.900;4.748;2022-11-11T02:03:29;6.72;;;3.42;;
74963;SDS011;63521;51.900;4.748;2022-11-11T02:05:58;6.47;;;3.38;;
74963;SDS011;63521;51.900;4.748;2022-11-11T02:08:28;7.03;;;3.70;;
74963;SDS011;63521;51.900;4.748;2022-11-11T02:11:17;6.70;;;3.55;;
74963;SDS011;63521;51.900;4.748;2022-11-11T02:14:05;7.40;;;3.60;;
74963;SDS011;63521;51.900;4.748;2022-11-11T02:16:49;6.32;;;3.38;;
74963;SDS011;63521;51.900;4.748;2022-11-11T02:19:15;7.38;;;3.72;;
74963;SDS011;63521;51.900;4.748;2022-11-11T02:21:44;5.97;;;3.25;;
74963;SDS011;63521;51.900;4.748;2022-11-11T02:24:14;10.02;;;3.45;;
74963;SDS011;63521;51.900;4.748;2022-11-11T02:26:41;5.20;;;3.42;;
74963;SDS011;63521;51.900;4.748;2022-11-11T02:29:08;6.03;;;3.67;;
74963;SDS011;63521;51.900;4.748;2022-11-11T02:31:36;6.47;;;3.28;;
74963;SDS011;63521;51.900;4.748;2022-11-11T02:34:02;7.63;;;3.70;;
74963;SDS011;63521;51.900;4.748;2022-11-11T02:36:27;6.63;;;3.70;;
74963;SDS011;63521;51.900;4.748;2022-11-11T02:38:53;7.97;;;4.13;;
74963;SDS011;63521;51.900;4.748;2022-11-11T02:41:19;5.88;;;3.30;;
74963;SDS011;63521;51.900;4.748;2022-11-11T02:44:03;5.95;;;3.50;;
74963;SDS011;63521;51.900;4.748;2022-11-11T02:46:28;7.03;;;3.63;;
74963;SDS011;63521;51.900;4.748;2022-11-11T02:48:53;6.78;;;3.45;;
74963;SDS011;63521;51.900;4.748;2022-11-11T02:51:19;4.78;;;3.00;;
74963;SDS011;63521;51.900;4.748;2022-11-11T02:53:44;6.25;;;3.80;;
74963;SDS011;63521;51.900;4.748;2022-11-11T02:56:10;4.85;;;3.17;;
74963;SDS011;63521;51.900;4.748;2022-11-11T02:58:36;6.78;;;3.40;;
74963;SDS011;63521;51.900;4.748;2022-11-11T03:01:01;6.63;;;3.60;;
74963;SDS011;63521;51.900;4.748;2022-11-11T03:03:26;6.95;;;3.80;;
74963;SDS011;63521;51.900;4.748;2022-11-11T03:05:52;7.75;;;3.05;;
74963;SDS011;63521;51.900;4.748;2022-11-11T03:08:18;6.75;;;3.20;;
74963;SDS011;63521;51.900;4.748;2022-11-11T03:10:43;5.55;;;3.10;;
74963;SDS011;63521;51.900;4.748;2022-11-11T03:13:09;5.45;;;3.13;;
74963;SDS011;63521;51.900;4.748;2022-11-11T03:15:34;6.18;;;3.25;;
74963;SDS011;63521;51.900;4.748;2022-11-11T03:18:00;5.10;;;3.13;;
74963;SDS011;63521;51.900;4.748;2022-11-11T03:20:26;5.60;;;3.13;;
74963;SDS011;63521;51.900;4.748;2022-11-11T03:23:11;6.65;;;3.70;;
74963;SDS011;63521;51.900;4.748;2022-11-11T03:25:42;8.60;;;3.70;;
74963;SDS011;63521;51.900;4.748;2022-11-11T03:28:11;7.15;;;3.17;;
74963;SDS011;63521;51.900;4.748;2022-11-11T03:30:38;5.85;;;3.25;;
74963;SDS011;63521;51.900;4.748;2022-11-11T03:33:05;5.20;;;3.03;;
74963;SDS011;63521;51.900;4.748;2022-11-11T03:35:32;5.70;;;3.40;;
74963;SDS011;63521;51.900;4.748;2022-11-11T03:37:58;6.28;;;3.05;;
74963;SDS011;63521;51.900;4.748;2022-11-11T03:40:42;6.63;;;3.10;;
74963;SDS011;63521;51.900;4.748;2022-11-11T03:43:08;6.80;;;2.97;;
74963;SDS011;63521;51.900;4.748;2022-11-11T03:45:34;5.38;;;3.33;;
74963;SDS011;63521;51.900;4.748;2022-11-11T03:48:00;5.82;;;2.88;;
74963;SDS011;63521;51.900;4.748;2022-11-11T03:50:25;7.00;;;3.85;;
74963;SDS011;63521;51.900;4.748;2022-11-11T03:52:51;5.38;;;3.35;;
74963;SDS011;63521;51.900;4.748;2022-11-11T03:55:17;5.53;;;3.05;;
74963;SDS011;63521;51.900;4.748;2022-11-11T03:57:44;5.38;;;3.15;;
74963;SDS011;63521;51.900;4.748;2022-11-11T04:00:14;5.53;;;3.22;;
74963;SDS011;63521;51.900;4.748;2022-11-11T04:02:41;5.57;;;2.80;;
74963;SDS011;63521;51.900;4.748;2022-11-11T04:05:25;5.53;;;3.13;;
74963;SDS011;63521;51.900;4.748;2022-11-11T04:08:10;5.43;;;3.00;;
74963;SDS011;63521;51.900;4.748;2022-11-11T04:11:12;5.55;;;2.75;;
74963;SDS011;63521;51.900;4.748;2022-11-11T04:13:39;4.90;;;2.70;;
74963;SDS011;63521;51.900;4.748;2022-11-11T04:16:25;6.35;;;3.10;;
74963;SDS011;63521;51.900;4.748;2022-11-11T04:18:50;5.90;;;3.10;;
74963;SDS011;63521;51.900;4.748;2022-11-11T04:21:34;7.35;;;2.88;;
74963;SDS011;63521;51.900;4.748;2022-11-11T04:24:16;5.45;;;3.05;;
74963;SDS011;63521;51.900;4.748;2022-11-11T04:27:02;5.15;;;2.97;;
74963;SDS011;63521;51.900;4.748;2022-11-11T04:29:28;3.88;;;2.40;;
74963;SDS011;63521;51.900;4.748;2022-11-11T04:32:01;4.97;;;2.88;;
74963;SDS011;63521;51.900;4.748;2022-11-11T04:34:48;6.05;;;2.88;;
74963;SDS011;63521;51.900;4.748;2022-11-11T04:37:15;6.38;;;2.60;;
74963;SDS011;63521;51.900;4.748;2022-11-11T04:39:41;4.15;;;2.60;;
74963;SDS011;63521;51.900;4.748;2022-11-11T04:42:25;3.65;;;2.67;;
74963;SDS011;63521;51.900;4.748;2022-11-11T04:44:51;4.18;;;2.33;;
74963;SDS011;63521;51.900;4.748;2022-11-11T04:47:35;5.18;;;3.03;;
74963;SDS011;63521;51.900;4.748;2022-11-11T04:50:00;3.83;;;2.55;;
74963;SDS011;63521;51.900;4.748;2022-11-11T04:52:26;5.55;;;2.85;;
74963;SDS011;63521;51.900;4.748;2022-11-11T04:54:52;4.60;;;2.67;;
74963;SDS011;63521;51.900;4.748;2022-11-11T04:57:41;5.40;;;3.25;;
74963;SDS011;63521;51.900;4.748;2022-11-11T05:00:11;3.55;;;2.60;;
74963;SDS011;63521;51.900;4.748;2022-11-11T05:02:40;4.90;;;2.75;;
74963;SDS011;63521;51.900;4.748;2022-11-11T05:05:24;3.63;;;2.70;;
74963;SDS011;63521;51.900;4.748;2022-11-11T05:07:50;4.53;;;3.05;;
74963;SDS011;63521;51.900;4.748;2022-11-11T05:10:34;5.00;;;2.75;;
74963;SDS011;63521;51.900;4.748;2022-11-11T05:13:00;3.55;;;2.55;;
74963;SDS011;63521;51.900;4.748;2022-11-11T05:15:44;4.07;;;2.45;;
74963;SDS011;63521;51.900;4.748;2022-11-11T05:18:28;4.90;;;3.00;;
74963;SDS011;63521;51.900;4.748;2022-11-11T05:21:13;5.43;;;3.05;;
74963;SDS011;63521;51.900;4.748;2022-11-11T05:23:46;5.22;;;3.00;;
74963;SDS011;63521;51.900;4.748;2022-11-11T05:26:30;5.68;;;3.03;;
74963;SDS011;63521;51.900;4.748;2022-11-11T05:28:56;4.55;;;3.08;;
74963;SDS011;63521;51.900;4.748;2022-11-11T05:31:22;4.63;;;2.90;;
74963;SDS011;63521;51.900;4.748;2022-11-11T05:33:48;5.25;;;3.10;;
74963;SDS011;63521;51.900;4.748;2022-11-11T05:36:13;5.72;;;2.65;;
74963;SDS011;63521;51.900;4.748;2022-11-11T05:38:39;6.78;;;2.80;;
74963;SDS011;63521;51.900;4.748;2022-11-11T05:41:04;4.28;;;2.58;;
74963;SDS011;63521;51.900;4.748;2022-11-11T05:43:30;4.90;;;2.83;;
74963;SDS011;63521;51.900;4.748;2022-11-11T05:45:55;6.95;;;3.40;;
74963;SDS011;63521;51.900;4.748;2022-11-11T05:48:21;5.10;;;2.80;;
74963;SDS011;63521;51.900;4.748;2022-11-11T05:50:46;5.30;;;3.20;;
74963;SDS011;63521;51.900;4.748;2022-11-11T05:53:12;4.05;;;2.67;;
74963;SDS011;63521;51.900;4.748;2022-11-11T05:55:37;5.78;;;3.10;;
74963;SDS011;63521;51.900;4.748;2022-11-11T05:58:02;4.60;;;2.88;;
74963;SDS011;63521;51.900;4.748;2022-11-11T06:00:28;5.03;;;2.80;;
74963;SDS011;63521;51.900;4.748;2022-11-11T06:02:53;4.93;;;2.88;;
74963;SDS011;63521;51.900;4.748;2022-11-11T06:05:19;4.28;;;2.88;;
74963;SDS011;63521;51.900;4.748;2022-11-11T06:07:44;6.38;;;3.05;;
74963;SDS011;63521;51.900;4.748;2022-11-11T06:10:10;5.03;;;2.83;;
74963;SDS011;63521;51.900;4.748;2022-11-11T06:12:54;4.82;;;3.15;;
74963;SDS011;63521;51.900;4.748;2022-11-11T06:15:37;4.80;;;2.85;;
74963;SDS011;63521;51.900;4.748;2022-11-11T06:18:04;4.70;;;2.92;;
74963;SDS011;63521;51.900;4.748;2022-11-11T06:20:30;4.85;;;2.88;;
74963;SDS011;63521;51.900;4.748;2022-11-11T06:22:56;4.40;;;3.17;;
74963;SDS011;63521;51.900;4.748;2022-11-11T06:25:28;6.40;;;3.40;;
74963;SDS011;63521;51.900;4.748;2022-11-11T06:28:14;5.75;;;3.20;;
74963;SDS011;63521;51.900;4.748;2022-11-11T06:30:40;4.78;;;2.85;;
74963;SDS011;63521;51.900;4.748;2022-11-11T06:33:06;5.47;;;3.50;;
74963;SDS011;63521;51.900;4.748;2022-11-11T06:35:33;5.57;;;2.95;;
74963;SDS011;63521;51.900;4.748;2022-11-11T06:37:59;4.95;;;2.83;;
74963;SDS011;63521;51.900;4.748;2022-11-11T06:40:28;5.55;;;3.08;;
74963;SDS011;63521;51.900;4.748;2022-11-11T06:58:44;4.95;;;2.58;;
74963;SDS011;63521;51.900;4.748;2022-11-11T07:01:09;5.10;;;3.00;;
74963;SDS011;63521;51.900;4.748;2022-11-11T07:03:35;5.47;;;2.90;;
74963;SDS011;63521;51.900;4.748;2022-11-11T07:06:01;6.47;;;3.38;;
74963;SDS011;63521;51.900;4.748;2022-11-11T07:08:27;6.97;;;3.22;;
74963;SDS011;63521;51.900;4.748;2022-11-11T07:10:53;4.25;;;2.88;;
74963;SDS011;63521;51.900;4.748;2022-11-11T07:13:18;5.25;;;2.80;;
74963;SDS011;63521;51.900;4.748;2022-11-11T07:15:43;5.85;;;3.20;;
74963;SDS011;63521;51.900;4.748;2022-11-11T07:18:09;5.57;;;3.15;;
74963;SDS011;63521;51.900;4.748;2022-11-11T07:20:35;5.40;;;2.92;;
74963;SDS011;63521;51.900;4.748;2022-11-11T07:23:01;6.35;;;3.28;;
74963;SDS011;63521;51.900;4.748;2022-11-11T07:25:27;4.35;;;3.00;;
74963;SDS011;63521;51.900;4.748;2022-11-11T07:27:52;5.32;;;3.08;;
74963;SDS011;63521;51.900;4.748;2022-11-11T07:34:08;5.80;;;3.00;;
74963;SDS011;63521;51.900;4.748;2022-11-11T07:36:53;5.00;;;3.03;;
74963;SDS011;63521;51.900;4.748;2022-11-11T07:40:18;5.78;;;3.20;;
74963;SDS011;63521;51.900;4.748;2022-11-11T07:42:43;5.22;;;3.28;;
74963;SDS011;63521;51.900;4.748;2022-11-11T07:45:09;3.67;;;2.65;;
74963;SDS011;63521;51.900;4.748;2022-11-11T07:47:38;5.63;;;2.97;;
74963;SDS011;63521;51.900;4.748;2022-11-11T07:50:04;5.25;;;3.33;;
74963;SDS011;63521;51.900;4.748;2022-11-11T07:52:30;6.20;;;3.45;;
74963;SDS011;63521;51.900;4.748;2022-11-11T07:54:56;6.20;;;3.10;;
74963;SDS011;63521;51.900;4.748;2022-11-11T07:57:21;6.10;;;3.55;;
74963;SDS011;63521;51.900;4.748;2022-11-11T07:59:47;6.85;;;3.70;;
74963;SDS011;63521;51.900;4.748;2022-11-11T08:02:12;6.93;;;3.30;;
74963;SDS011;63521;51.900;4.748;2022-11-11T08:04:38;5.95;;;3.17;;
74963;SDS011;63521;51.900;4.748;2022-11-11T08:07:03;6.03;;;3.38;;
74963;SDS011;63521;51.900;4.748;2022-11-11T08:09:29;6.63;;;3.42;;
74963;SDS011;63521;51.900;4.748;2022-11-11T08:11:55;6.63;;;3.50;;
74963;SDS011;63521;51.900;4.748;2022-11-11T08:14:38;8.32;;;3.58;;
74963;SDS011;63521;51.900;4.748;2022-11-11T08:17:04;6.95;;;3.78;;
74963;SDS011;63521;51.900;4.748;2022-11-11T08:19:29;6.28;;;3.65;;
74963;SDS011;63521;51.900;4.748;2022-11-11T08:21:55;7.57;;;4.05;;
74963;SDS011;63521;51.900;4.748;2022-11-11T08:24:20;7.93;;;4.32;;
74963;SDS011;63521;51.900;4.748;2022-11-11T08:26:46;7.45;;;4.70;;
74963;SDS011;63521;51.900;4.748;2022-11-11T08:29:12;9.02;;;4.03;;
74963;SDS011;63521;51.900;4.748;2022-11-11T08:31:37;9.05;;;4.40;;
74963;SDS011;63521;51.900;4.748;2022-11-11T08:34:03;7.90;;;4.25;;
74963;SDS011;63521;51.900;4.748;2022-11-11T08:36:29;7.38;;;4.40;;
74963;SDS011;63521;51.900;4.748;2022-11-11T08:38:54;8.23;;;4.57;;
74963;SDS011;63521;51.900;4.748;2022-11-11T08:41:19;7.65;;;4.40;;
74963;SDS011;63521;51.900;4.748;2022-11-11T08:43:46;7.20;;;3.90;;
74963;SDS011;63521;51.900;4.748;2022-11-11T08:46:11;8.77;;;4.25;;
74963;SDS011;63521;51.900;4.748;2022-11-11T08:48:37;6.75;;;3.92;;
74963;SDS011;63521;51.900;4.748;2022-11-11T08:51:02;9.23;;;4.38;;
74963;SDS011;63521;51.900;4.748;2022-11-11T08:53:28;11.45;;;5.13;;
74963;SDS011;63521;51.900;4.748;2022-11-11T08:55:53;9.90;;;5.05;;
74963;SDS011;63521;51.900;4.748;2022-11-11T08:58:19;8.52;;;4.55;;
74963;SDS011;63521;51.900;4.748;2022-11-11T09:00:44;8.73;;;4.57;;
74963;SDS011;63521;51.900;4.748;2022-11-11T09:03:10;9.60;;;4.93;;
74963;SDS011;63521;51.900;4.748;2022-11-11T09:05:36;10.35;;;4.88;;
74963;SDS011;63521;51.900;4.748;2022-11-11T09:08:03;10.45;;;5.38;;
74963;SDS011;63521;51.900;4.748;2022-11-11T09:10:32;8.77;;;4.32;;
74963;SDS011;63521;51.900;4.748;2022-11-11T09:12:58;7.45;;;4.32;;
74963;SDS011;63521;51.900;4.748;2022-11-11T09:15:24;8.77;;;4.70;;
74963;SDS011;63521;51.900;4.748;2022-11-11T09:17:50;8.60;;;5.10;;
74963;SDS011;63521;51.900;4.748;2022-11-11T09:20:16;10.23;;;5.30;;
74963;SDS011;63521;51.900;4.748;2022-11-11T09:22:43;9.13;;;4.95;;
74963;SDS011;63521;51.900;4.748;2022-11-11T09:25:09;9.90;;;5.38;;
74963;SDS011;63521;51.900;4.748;2022-11-11T09:27:34;9.55;;;5.50;;
74963;SDS011;63521;51.900;4.748;2022-11-11T09:30:00;9.60;;;4.85;;
74963;SDS011;63521;51.900;4.748;2022-11-11T09:32:25;7.93;;;4.53;;
74963;SDS011;63521;51.900;4.748;2022-11-11T09:34:50;10.02;;;5.18;;
74963;SDS011;63521;51.900;4.748;2022-11-11T09:37:16;9.07;;;5.20;;
74963;SDS011;63521;51.900;4.748;2022-11-11T09:39:41;9.88;;;5.35;;
74963;SDS011;63521;51.900;4.748;2022-11-11T09:42:16;8.65;;;4.97;;
74963;SDS011;63521;51.900;4.748;2022-11-11T09:50:12;10.15;;;5.40;;
74963;SDS011;63521;51.900;4.748;2022-11-11T09:52:40;9.98;;;5.22;;
74963;SDS011;63521;51.900;4.748;2022-11-11T09:55:17;9.93;;;5.32;;
74963;SDS011;63521;51.900;4.748;2022-11-11T09:57:50;10.73;;;5.32;;
74963;SDS011;63521;51.900;4.748;2022-11-11T10:02:47;10.13;;;5.43;;
74963;SDS011;63521;51.900;4.748;2022-11-11T10:07:51;7.88;;;4.65;;
74963;SDS011;63521;51.900;4.748;2022-11-11T10:10:26;10.45;;;5.38;;
74963;SDS011;63521;51.900;4.748;2022-11-11T10:35:16;7.68;;;4.32;;
74963;SDS011;63521;51.900;4.748;2022-11-11T10:37:43;9.90;;;5.15;;
74963;SDS011;63521;51.900;4.748;2022-11-11T10:40:21;7.10;;;4.68;;
74963;SDS011;63521;51.900;4.748;2022-11-11T10:42:50;8.60;;;5.47;;
74963;SDS011;63521;51.900;4.748;2022-11-11T10:45:20;9.60;;;5.93;;
74963;SDS011;63521;51.900;4.748;2022-11-11T10:47:59;8.70;;;4.72;;
74963;SDS011;63521;51.900;4.748;2022-11-11T10:50:37;9.80;;;5.38;;
74963;SDS011;63521;51.900;4.748;2022-11-11T10:59:10;8.73;;;4.75;;
74963;SDS011;63521;51.900;4.748;2022-11-11T11:01:42;8.30;;;4.57;;
74963;SDS011;63521;51.900;4.748;2022-11-11T11:04:36;8.98;;;5.13;;
74963;SDS011;63521;51.900;4.748;2022-11-11T11:07:04;8.05;;;4.57;;
74963;SDS011;63521;51.900;4.748;2022-11-11T11:09:44;10.10;;;5.22;;
74963;SDS011;63521;51.900;4.748;2022-11-11T11:12:16;8.30;;;4.70;;
74963;SDS011;63521;51.900;4.748;2022-11-11T11:14:46;9.82;;;5.28;;
74963;SDS011;63521;51.900;4.748;2022-11-11T11:17:14;8.57;;;4.85;;
74963;SDS011;63521;51.900;4.748;2022-11-11T11:19:41;9.32;;;4.97;;
74963;SDS011;63521;51.900;4.748;2022-11-11T11:22:07;9.82;;;5.03;;
74963;SDS011;63521;51.900;4.748;2022-11-11T11:24:33;9.13;;;5.00;;
74963;SDS011;63521;51.900;4.748;2022-11-11T11:27:02;9.75;;;5.40;;
74963;SDS011;63521;51.900;4.748;2022-11-11T11:29:30;9.30;;;5.50;;
74963;SDS011;63521;51.900;4.748;2022-11-11T11:32:16;8.07;;;4.82;;
74963;SDS011;63521;51.900;4.748;2022-11-11T11:34:50;9.50;;;5.30;;
74963;SDS011;63521;51.900;4.748;2022-11-11T11:37:17;9.63;;;5.43;;
74963;SDS011;63521;51.900;4.748;2022-11-11T11:39:43;11.63;;;5.40;;
74963;SDS011;63521;51.900;4.748;2022-11-11T11:42:25;11.82;;;6.22;;
74963;SDS011;63521;51.900;4.748;2022-11-11T11:44:55;10.30;;;5.65;;
74963;SDS011;63521;51.900;4.748;2022-11-11T11:50:13;12.02;;;6.63;;
74963;SDS011;63521;51.900;4.748;2022-11-11T11:55:43;9.98;;;5.63;;
74963;SDS011;63521;51.900;4.748;2022-11-11T12:00:49;11.63;;;6.38;;
74963;SDS011;63521;51.900;4.748;2022-11-11T12:03:26;11.98;;;5.80;;
74963;SDS011;63521;51.900;4.748;2022-11-11T12:08:41;10.45;;;5.78;;
74963;SDS011;63521;51.900;4.748;2022-11-11T12:11:38;9.70;;;5.90;;
74963;SDS011;63521;51.900;4.748;2022-11-11T12:17:00;11.40;;;5.75;;
74963;SDS011;63521;51.900;4.748;2022-11-11T12:19:46;9.95;;;5.88;;
74963;SDS011;63521;51.900;4.748;2022-11-11T12:22:37;11.70;;;5.80;;
74963;SDS011;63521;51.900;4.748;2022-11-11T12:25:33;10.60;;;5.68;;
74963;SDS011;63521;51.900;4.748;2022-11-11T12:28:42;10.00;;;6.00;;
74963;SDS011;63521;51.900;4.748;2022-11-11T12:31:24;10.18;;;5.72;;
74963;SDS011;63521;51.900;4.748;2022-11-11T12:38:57;9.90;;;5.72;;
74963;SDS011;63521;51.900;4.748;2022-11-11T12:41:35;10.50;;;6.15;;
74963;SDS011;63521;51.900;4.748;2022-11-11T12:44:13;10.73;;;6.28;;
74963;SDS011;63521;51.900;4.748;2022-11-11T12:57:34;9.45;;;5.50;;
74963;SDS011;63521;51.900;4.748;2022-11-11T13:00:20;9.35;;;5.97;;
74963;SDS011;63521;51.900;4.748;2022-11-11T13:03:05;9.98;;;5.78;;
74963;SDS011;63521;51.900;4.748;2022-11-11T13:05:58;7.57;;;5.40;;
74963;SDS011;63521;51.900;4.748;2022-11-11T13:08:38;8.68;;;5.72;;
74963;SDS011;63521;51.900;4.748;2022-11-11T13:16:35;7.78;;;4.93;;
74963;SDS011;63521;51.900;4.748;2022-11-11T13:19:13;8.18;;;5.03;;
74963;SDS011;63521;51.900;4.748;2022-11-11T13:21:47;8.45;;;5.20;;
74963;SDS011;63521;51.900;4.748;2022-11-11T13:24:28;8.15;;;5.07;;
74963;SDS011;63521;51.900;4.748;2022-11-11T13:28:12;8.15;;;4.82;;
74963;SDS011;63521;51.900;4.748;2022-11-11T13:33:36;7.93;;;4.72;;
74963;SDS011;63521;51.900;4.748;2022-11-11T13:36:05;8.98;;;5.07;;
74963;SDS011;63521;51.900;4.748;2022-11-11T13:41:05;8.82;;;5.25;;
74963;SDS011;63521;51.900;4.748;2022-11-11T13:43:42;8.05;;;4.72;;
74963;SDS011;63521;51.900;4.748;2022-11-11T13:46:28;7.53;;;4.78;;
74963;SDS011;63521;51.900;4.748;2022-11-11T13:48:56;9.35;;;4.45;;
74963;SDS011;63521;51.900;4.748;2022-11-11T13:51:26;7.90;;;4.53;;
74963;SDS011;63521;51.900;4.748;2022-11-11T13:53:55;8.23;;;4.80;;
74963;SDS011;63521;51.900;4.748;2022-11-11T13:58:48;7.60;;;4.82;;
74963;SDS011;63521;51.900;4.748;2022-11-11T14:01:14;7.65;;;4.40;;
74963;SDS011;63521;51.900;4.748;2022-11-11T14:13:48;7.25;;;4.53;;
74963;SDS011;63521;51.900;4.748;2022-11-11T14:16:56;7.47;;;4.28;;
74963;SDS011;63521;51.900;4.748;2022-11-11T14:21:47;7.25;;;3.70;;
74963;SDS011;63521;51.900;4.748;2022-11-11T14:24:22;6.80;;;4.03;;
74963;SDS011;63521;51.900;4.748;2022-11-11T14:27:00;6.60;;;3.83;;
74963;SDS011;63521;51.900;4.748;2022-11-11T14:29:29;6.60;;;3.92;;
74963;SDS011;63521;51.900;4.748;2022-11-11T14:34:42;5.53;;;3.83;;
74963;SDS011;63521;51.900;4.748;2022-11-11T14:38:12;6.65;;;3.92;;
74963;SDS011;63521;51.900;4.748;2022-11-11T14:40:33;5.45;;;3.50;;
74963;SDS011;63521;51.900;4.748;2022-11-11T14:42:59;5.72;;;3.45;;
74963;SDS011;63521;51.900;4.748;2022-11-11T14:46:00;7.43;;;3.80;;
74963;SDS011;63521;51.900;4.748;2022-11-11T14:54:00;5.18;;;3.38;;
74963;SDS011;63521;51.900;4.748;2022-11-11T14:56:26;5.20;;;3.20;;
74963;SDS011;63521;51.900;4.748;2022-11-11T14:58:52;5.72;;;3.10;;
74963;SDS011;63521;51.900;4.748;2022-11-11T15:01:18;5.22;;;3.47;;
74963;SDS011;63521;51.900;4.748;2022-11-11T15:03:45;5.40;;;3.38;;
74963;SDS011;63521;51.900;4.748;2022-11-11T15:06:18;5.65;;;3.50;;
74963;SDS011;63521;51.900;4.748;2022-11-11T15:08:59;5.18;;;3.00;;
74963;SDS011;63521;51.900;4.748;2022-11-11T15:11:57;5.22;;;3.30;;
74963;SDS011;63521;51.900;4.748;2022-11-11T15:14:51;5.25;;;3.30;;
74963;SDS011;63521;51.900;4.748;2022-11-11T15:17:25;6.05;;;3.75;;
74963;SDS011;63521;51.900;4.748;2022-11-11T15:23:10;6.47;;;3.22;;
74963;SDS011;63521;51.900;4.748;2022-11-11T15:25:43;4.97;;;3.38;;
74963;SDS011;63521;51.900;4.748;2022-11-11T15:30:57;4.90;;;3.20;;
74963;SDS011;63521;51.900;4.748;2022-11-11T15:40:59;3.80;;;2.50;;
74963;SDS011;63521;51.900;4.748;2022-11-11T16:05:33;5.13;;;2.92;;
74963;SDS011;63521;51.900;4.748;2022-11-11T16:12:31;3.90;;;2.53;;
74963;SDS011;63521;51.900;4.748;2022-11-11T16:16:26;4.78;;;2.50;;
74963;SDS011;63521;51.900;4.748;2022-11-11T16:41:03;3.00;;;2.15;;
74963;SDS011;63521;51.900;4.748;2022-11-11T16:47:14;4.15;;;2.80;;
74963;SDS011;63521;51.900;4.748;2022-11-11T16:59:08;4.20;;;2.63;;
74963;SDS011;63521;51.900;4.748;2022-11-11T17:13:01;3.90;;;2.53;;
74963;SDS011;63521;51.900;4.748;2022-11-11T17:15:28;4.47;;;2.72;;
74963;SDS011;63521;51.900;4.748;2022-11-11T17:17:54;4.55;;;2.38;;
74963;SDS011;63521;51.900;4.748;2022-11-11T17:20:19;4.95;;;2.88;;
74963;SDS011;63521;51.900;4.748;2022-11-11T17:25:52;4.18;;;2.40;;
74963;SDS011;63521;51.900;4.748;2022-11-11T17:28:21;3.97;;;2.50;;
74963;SDS011;63521;51.900;4.748;2022-11-11T17:30:47;4.40;;;2.50;;
74963;SDS011;63521;51.900;4.748;2022-11-11T17:33:12;4.07;;;2.30;;
74963;SDS011;63521;51.900;4.748;2022-11-11T17:35:50;4.03;;;2.50;;
74963;SDS011;63521;51.900;4.748;2022-11-11T17:38:19;3.63;;;2.38;;
74963;SDS011;63521;51.900;4.748;2022-11-11T17:40:45;5.03;;;2.90;;
74963;SDS011;63521;51.900;4.748;2022-11-11T17:43:12;4.72;;;2.35;;
74963;SDS011;63521;51.900;4.748;2022-11-11T17:45:38;3.25;;;2.15;;
74963;SDS011;63521;51.900;4.748;2022-11-11T17:48:06;4.45;;;2.38;;
74963;SDS011;63521;51.900;4.748;2022-11-11T17:50:32;4.25;;;2.47;;
74963;SDS011;63521;51.900;4.748;2022-11-11T17:52:58;3.78;;;2.35;;
74963;SDS011;63521;51.900;4.748;2022-11-11T17:55:23;3.05;;;2.10;;
74963;SDS011;63521;51.900;4.748;2022-11-11T17:57:48;3.42;;;2.20;;
74963;SDS011;63521;51.900;4.748;2022-11-11T18:00:15;3.88;;;2.20;;
74963;SDS011;63521;51.900;4.748;2022-11-11T18:02:41;3.80;;;1.90;;
74963;SDS011;63521;51.900;4.748;2022-11-11T18:05:06;4.15;;;2.17;;
74963;SDS011;63521;51.900;4.748;2022-11-11T18:07:32;4.18;;;2.42;;
74963;SDS011;63521;51.900;4.748;2022-11-11T18:09:57;4.57;;;2.72;;
74963;SDS011;63521;51.900;4.748;2022-11-11T18:12:23;3.60;;;2.25;;
74963;SDS011;63521;51.900;4.748;2022-11-11T18:14:48;3.78;;;2.17;;
74963;SDS011;63521;51.900;4.748;2022-11-11T18:17:14;4.97;;;2.40;;
74963;SDS011;63521;51.900;4.748;2022-11-11T18:19:39;3.70;;;2.13;;
74963;SDS011;63521;51.900;4.748;2022-11-11T18:22:05;4.13;;;2.28;;
74963;SDS011;63521;51.900;4.748;2022-11-11T18:24:32;4.03;;;2.30;;
74963;SDS011;63521;51.900;4.748;2022-11-11T18:27:16;3.05;;;2.00;;
74963;SDS011;63521;51.900;4.748;2022-11-11T18:30:48;4.43;;;2.30;;
74963;SDS011;63521;51.900;4.748;2022-11-11T18:33:14;3.63;;;2.08;;
74963;SDS011;63521;51.900;4.748;2022-11-11T18:35:39;3.03;;;2.00;;
74963;SDS011;63521;51.900;4.748;2022-11-11T18:38:05;4.93;;;2.15;;
74963;SDS011;63521;51.900;4.748;2022-11-11T18:40:30;3.25;;;2.28;;
74963;SDS011;63521;51.900;4.748;2022-11-11T18:42:55;3.28;;;1.90;;
74963;SDS011;63521;51.900;4.748;2022-11-11T18:45:21;3.70;;;1.92;;
74963;SDS011;63521;51.900;4.748;2022-11-11T18:47:48;3.95;;;2.20;;
74963;SDS011;63521;51.900;4.748;2022-11-11T18:50:13;4.18;;;1.60;;
74963;SDS011;63521;51.900;4.748;2022-11-11T18:52:42;3.58;;;2.00;;